createdAt,value
2023-04-09T00:14:43.197Z,100
2023-04-09T00:29:39.387Z,100
2023-04-09T00:44:35.823Z,100
2023-04-09T00:59:31.894Z,100
2023-04-09T01:14:27.644Z,100
2023-04-09T01:29:23.532Z,100
2023-04-09T01:44:20.108Z,100
2023-04-09T01:59:16.532Z,100
2023-04-09T02:14:12.752Z,100
2023-04-09T02:29:08.617Z,100
2023-04-09T02:44:04.693Z,100
2023-04-09T03:13:57.401Z,100
2023-04-09T03:28:53.490Z,100
2023-04-09T03:43:49.457Z,100
2023-04-09T03:58:46.170Z,100
2023-04-09T04:13:42.212Z,100
2023-04-09T04:28:38.344Z,100
2023-04-09T04:43:34.427Z,100
2023-04-09T04:58:30.720Z,100
2023-04-09T05:13:26.680Z,100
2023-04-09T05:28:22.798Z,100
2023-04-09T05:43:19.335Z,100
2023-04-09T05:58:15.912Z,100
2023-04-09T06:13:12.765Z,100
2023-04-09T06:28:09.313Z,100
2023-04-09T06:43:05.831Z,100
2023-04-09T06:58:02.284Z,100
2023-04-09T07:12:58.551Z,100
2023-04-09T07:27:54.980Z,100
2023-04-09T07:42:51.673Z,100
2023-04-09T07:57:48.160Z,100
2023-04-09T08:12:44.264Z,100
2023-04-09T08:27:41.146Z,100
2023-04-09T08:42:37.044Z,100
2023-04-09T08:57:33.484Z,98.68
2023-04-09T09:12:30.079Z,90.46
2023-04-09T09:27:26.989Z,88.81
2023-04-09T09:42:23.422Z,79.94
2023-04-09T09:57:20.818Z,77.48
2023-04-09T10:12:17.809Z,63.9
2023-04-09T10:27:16.383Z,71.99
2023-04-09T10:42:11.164Z,66.72
2023-04-09T10:57:07.746Z,54.41
2023-04-09T11:12:04.381Z,52.19
2023-04-09T11:27:00.790Z,55.16
2023-04-09T11:41:57.312Z,50.47
2023-04-09T11:56:53.903Z,57.4
2023-04-09T12:11:50.282Z,51.15
2023-04-09T12:26:47.126Z,47.97
2023-04-09T12:41:43.139Z,49.97
2023-04-09T12:56:39.257Z,50.87
2023-04-09T13:11:35.039Z,50.82
2023-04-09T13:26:31.082Z,47.46
2023-04-09T13:41:29.359Z,47.66
2023-04-09T13:56:24.204Z,47
2023-04-09T14:11:20.219Z,45.85
2023-04-09T14:26:16.516Z,47.2
2023-04-09T14:41:12.540Z,44.98
2023-04-09T14:56:09.285Z,47.57
2023-04-09T15:11:05.238Z,47.57
2023-04-09T15:26:01.291Z,48.48
2023-04-09T15:40:57.766Z,47.92
2023-04-09T15:55:54.490Z,45.77
2023-04-09T16:10:50.427Z,47.28
2023-04-09T16:25:46.443Z,46.28
2023-04-09T16:40:43.022Z,42.54
2023-04-09T16:55:38.808Z,43.07
2023-04-09T17:10:34.511Z,43.43
2023-04-09T17:25:30.532Z,44.49
2023-04-09T17:40:26.656Z,47.38
2023-04-09T17:55:22.864Z,50.62
2023-04-09T18:10:18.110Z,62.16
2023-04-09T18:25:14.067Z,86.61
2023-04-09T18:40:10.172Z,100
2023-04-09T18:55:06.030Z,100
2023-04-09T19:10:02.008Z,100
2023-04-09T19:24:57.826Z,100
2023-04-09T19:39:53.345Z,100
2023-04-09T19:54:49.462Z,100
2023-04-09T20:09:44.850Z,100
2023-04-09T20:24:40.721Z,100
2023-04-09T20:39:36.841Z,100
2023-04-09T20:54:33.059Z,100
2023-04-09T21:09:28.513Z,100
2023-04-09T21:24:24.172Z,100
2023-04-09T21:39:20.358Z,100
2023-04-09T21:54:16.507Z,100
2023-04-09T22:09:12.742Z,100
2023-04-09T22:24:08.630Z,100
2023-04-09T22:39:04.359Z,100
2023-04-09T22:54:00.516Z,100
2023-04-09T23:08:56.807Z,100
2023-04-09T23:23:53.638Z,100
2023-04-09T23:38:48.983Z,100
2023-04-09T23:53:45.224Z,100
